Time;durP1;ratioP1;P1;durP2;ratioP2;P2;SDS_P1;SDS_P2;PMS_P1;PMS_P2;Temp;Humidity;BMP_temperature;BMP_pressure;BME280_temperature;BME280_humidity;BME280_pressure;Samples;Min_cycle;Max_cycle;Signal;HPM_P1;HPM_P2
2021/04/06 05:40:57;;;;;;;0.77;0.70;;;;;;;12.34;59.28;97979.84;5151572;27;20925;-78
2021/04/06 05:43:24;;;;;;;1.08;1.08;;;;;;;11.93;61.43;97984.84;5150986;27;20027;-79
2021/04/06 05:45:52;;;;;;;1.67;1.58;;;;;;;12.08;61.20;97982.97;5150662;27;20103;-80
2021/04/06 05:48:18;;;;;;;0.57;0.57;;;;;;;12.69;59.17;97963.56;5150528;27;20023;-80
2021/04/06 05:50:49;;;;;;;11.07;2.40;;;;;;;12.77;57.76;97957.22;5150664;27;20115;-79
2021/04/06 05:53:14;;;;;;;0.45;0.45;;;;;;;12.69;58.02;97996.81;5150500;27;20026;-79
2021/04/06 05:55:40;;;;;;;0.28;0.28;;;;;;;11.64;60.25;97987.25;5150863;27;20031;-78
2021/04/06 05:58:06;;;;;;;0.70;0.70;;;;;;;11.12;61.98;97993.81;5150477;27;20088;-78
2021/04/06 06:00:31;;;;;;;0.20;0.20;;;;;;;11.56;62.50;97991.56;5150463;27;20037;-78
2021/04/06 06:02:58;;;;;;;0.50;0.50;;;;;;;11.31;62.69;97974.03;5150283;27;20022;-77
2021/04/06 06:05:23;;;;;;;3.22;0.73;;;;;;;11.82;62.18;97990.06;5150619;27;20042;-77
2021/04/06 06:07:49;;;;;;;8.77;0.98;;;;;;;12.08;60.72;97974.66;5150509;27;20023;-77
2021/04/06 06:10:31;;;;;;;1.83;1.73;;;;;;;13.37;57.50;97975.69;5150361;27;20027;-76
2021/04/06 06:13:26;;;;;;;0.80;0.80;;;;;;;15.45;53.67;97985.03;5150358;27;20023;-78
2021/04/06 06:16:14;;;;;;;4.15;1.65;;;;;;;16.54;49.61;97988.00;5150449;27;20081;-76
2021/04/06 06:19:10;;;;;;;1.77;1.67;;;;;;;17.42;45.86;97975.97;5150143;27;20030;-80
2021/04/06 06:21:39;;;;;;;2.47;1.00;;;;;;;18.28;44.73;97971.69;5150710;27;20034;-79
2021/04/06 06:24:06;;;;;;;0.30;0.30;;;;;;;18.70;42.26;97956.72;5150428;27;20030;-78
2021/04/06 06:26:37;;;;;;;0.98;0.98;;;;;;;17.51;43.54;97967.38;5150375;27;20497;-78
2021/04/06 06:29:09;;;;;;;0.90;0.90;;;;;;;17.79;44.36;97971.06;5150510;27;20031;-78
2021/04/06 06:31:44;;;;;;;0.98;0.98;;;;;;;17.82;43.12;97958.88;5149978;27;20027;-76
2021/04/06 06:34:30;;;;;;;1.10;1.10;;;;;;;16.81;44.63;97942.13;5149820;27;20031;-77
2021/04/06 06:37:09;;;;;;;0.70;0.70;;;;;;;15.30;48.09;97976.78;5148440;27;20027;-76
2021/04/06 06:39:40;;;;;;;0.60;0.60;;;;;;;14.97;49.64;97962.38;5147954;27;20051;-78
2021/04/06 06:42:09;;;;;;;3.42;3.17;;;;;;;13.83;52.49;97946.31;5134494;27;20489;-77
2021/04/06 06:44:36;;;;;;;1.48;1.42;;;;;;;13.72;53.32;97925.91;5134694;27;20126;-78
2021/04/06 06:47:18;;;;;;;14.35;1.77;;;;;;;16.29;49.34;97979.19;5134972;27;20114;-76
2021/04/06 06:49:44;;;;;;;1.45;1.35;;;;;;;15.53;47.82;97932.53;5135256;27;20084;-77
2021/04/06 06:52:22;;;;;;;4.30;3.10;;;;;;;16.40;46.33;97992.44;5135862;27;20031;-78
2021/04/06 06:55:00;;;;;;;0.95;0.95;;;;;;;15.42;48.60;97947.06;5135791;27;20031;-79
2021/04/06 06:57:35;;;;;;;2.97;0.65;;;;;;;15.31;48.89;97925.41;5135750;27;20027;-78
2021/04/06 07:00:11;;;;;;;3.05;1.60;;;;;;;16.34;47.26;97932.31;5135900;27;20045;-78
2021/04/06 07:02:38;;;;;;;6.88;2.08;;;;;;;14.92;49.53;97927.69;5135639;27;20110;-78
2021/04/06 07:05:20;;;;;;;2.05;1.85;;;;;;;14.85;50.28;97969.03;5135540;27;20027;-77
2021/04/06 07:07:57;;;;;;;4.38;2.60;;;;;;;15.24;50.21;97958.47;5135481;27;20019;-78
2021/04/06 07:10:40;;;;;;;4.82;2.78;;;;;;;15.83;49.06;97934.66;5135822;27;20031;-77
2021/04/06 07:13:08;;;;;;;3.10;1.58;;;;;;;15.98;48.34;97920.59;5135658;27;20120;-77
2021/04/06 07:15:42;;;;;;;0.88;0.88;;;;;;;15.85;48.25;97931.38;5135295;27;20030;-77
2021/04/06 07:18:12;;;;;;;2.72;2.28;;;;;;;16.51;48.20;97961.91;5136051;27;20034;-78
2021/04/06 07:20:41;;;;;;;1.83;1.73;;;;;;;16.99;45.79;97906.22;5135124;27;20049;-78
2021/04/06 07:23:14;;;;;;;2.13;1.65;;;;;;;16.92;46.21;97951.31;5135140;27;20030;-77
2021/04/06 07:25:44;;;;;;;5.45;1.80;;;;;;;16.09;46.35;97920.72;5135515;27;20114;-77
2021/04/06 07:28:10;;;;;;;1.42;1.33;;;;;;;15.85;50.07;97939.72;5135106;27;20031;-78
2021/04/06 07:30:38;;;;;;;1.92;1.15;;;;;;;16.82;45.61;97915.75;5135126;27;20489;-80
2021/04/06 07:33:06;;;;;;;0.88;0.88;;;;;;;16.19;48.41;97913.72;5135097;27;20065;-79
2021/04/06 07:35:31;;;;;;;;;;;;;;;15.28;49.68;97931.94;5135448;27;20393;-78
2021/04/06 07:37:57;;;;;;;3.15;2.95;;;;;;;14.77;53.91;97926.94;5134986;27;19908;-78
2021/04/06 07:40:24;;;;;;;2.08;1.92;;;;;;;14.84;50.01;97884.81;5134761;27;20051;-77
2021/04/06 07:42:50;;;;;;;0.82;0.82;;;;;;;14.34;52.64;97888.88;5134740;27;20031;-77
2021/04/06 07:45:21;;;;;;;1.65;1.55;;;;;;;12.75;57.50;97893.16;5134775;27;20034;-79
2021/04/06 07:47:47;;;;;;;0.85;0.85;;;;;;;12.61;59.21;97933.41;5134839;27;20035;-76
2021/04/06 07:50:13;;;;;;;1.48;1.25;;;;;;;12.41;57.71;97896.41;5134737;27;20393;-77
2021/04/06 07:52:39;;;;;;;1.15;1.15;;;;;;;12.21;62.81;97928.16;5133804;27;20456;-76
2021/04/06 07:55:06;;;;;;;1.08;0.93;;;;;;;12.14;60.15;97861.25;5134497;27;20027;-76
2021/04/06 07:57:43;;;;;;;2.78;1.35;;;;;;;11.67;59.98;97925.47;5134521;27;20030;-77
2021/04/06 08:00:09;;;;;;;2.40;2.20;;;;;;;10.91;61.51;97918.81;5134484;27;20122;-77
2021/04/06 08:02:43;;;;;;;1.15;1.15;;;;;;;10.77;65.28;97899.28;5134769;27;20337;-77
2021/04/06 08:05:16;;;;;;;0.40;0.40;;;;;;;10.77;61.72;97891.78;5134559;27;20398;-77
2021/04/06 08:07:42;;;;;;;1.70;1.58;;;;;;;11.05;61.27;97911.16;5134446;27;20522;-77
2021/04/06 08:10:27;;;;;;;8.35;1.98;;;;;;;10.74;63.66;97897.44;5134120;27;20076;-77
2021/04/06 08:12:53;;;;;;;2.45;2.35;;;;;;;10.75;63.69;97887.91;5123335;27;20027;-78
2021/04/06 08:15:21;;;;;;;1.83;1.75;;;;;;;10.81;67.12;97836.34;5133701;27;20485;-75
2021/04/06 08:17:51;;;;;;;3.28;2.72;;;;;;;11.11;62.90;97874.16;5134116;27;20106;-76
2021/04/06 08:20:20;;;;;;;1.27;1.13;;;;;;;10.84;63.73;97852.03;5134003;27;20023;-75
2021/04/06 08:22:52;;;;;;;1.63;1.52;;;;;;;10.94;64.01;97792.75;5134482;27;20521;-74
2021/04/06 08:25:18;;;;;;;1.70;1.60;;;;;;;11.12;63.12;97863.88;5133962;27;20054;-75
2021/04/06 08:27:45;;;;;;;1.65;0.63;;;;;;;10.78;63.41;97820.72;5133729;27;20547;-73
2021/04/06 08:30:26;;;;;;;3.50;1.73;;;;;;;11.19;63.78;97838.69;5133853;27;20035;-74
2021/04/06 08:33:18;;;;;;;0.95;0.95;;;;;;;11.03;63.60;97843.28;5134681;27;20535;-76
2021/04/06 08:35:43;;;;;;;0.40;0.40;;;;;;;11.04;63.85;97821.94;5130737;27;20092;-74
2021/04/06 08:38:31;;;;;;;5.78;1.52;;;;;;;11.01;63.37;97806.28;5133592;27;20023;-76
2021/04/06 08:41:26;;;;;;;1.10;1.10;;;;;;;11.47;64.17;97831.13;5134074;27;20043;-76
2021/04/06 08:43:54;;;;;;;0.40;0.40;;;;;;;11.42;62.88;97802.09;5119909;27;20520;-74
2021/04/06 08:46:33;;;;;;;0.90;0.90;;;;;;;11.62;63.36;97838.34;5133358;27;20039;-75
2021/04/06 08:48:59;;;;;;;0.88;0.88;;;;;;;11.19;66.06;97775.84;5133448;27;20034;-75
2021/04/06 08:51:29;;;;;;;0.75;0.75;;;;;;;11.54;64.79;97769.94;5133527;27;20023;-74
2021/04/06 08:54:03;;;;;;;0.90;0.65;;;;;;;11.53;62.77;97802.38;5133346;27;20105;-74
2021/04/06 08:56:31;;;;;;;0.43;0.43;;;;;;;11.29;63.86;97818.84;5133474;27;20031;-74
2021/04/06 08:59:19;;;;;;;0.77;0.77;;;;;;;11.32;64.16;97804.13;5133340;27;20403;-75
2021/04/06 09:01:53;;;;;;;0.20;0.20;;;;;;;11.06;64.78;97728.25;5133879;27;20031;-75
2021/04/06 09:04:22;;;;;;;0.80;0.80;;;;;;;11.01;66.36;97760.06;5133573;27;20489;-74
2021/04/06 09:06:48;;;;;;;1.35;1.35;;;;;;;11.11;64.74;97796.75;5133341;27;20027;-76
2021/04/06 09:09:18;;;;;;;1.85;1.27;;;;;;;10.17;69.31;97745.91;5133201;27;20019;-74
2021/04/06 09:11:45;;;;;;;0.90;0.90;;;;;;;10.41;69.74;97693.63;5133177;27;20095;-75
2021/04/06 09:14:10;;;;;;;1.33;1.10;;;;;;;11.31;66.40;97785.22;5133170;27;20094;-75
2021/04/06 09:16:36;;;;;;;1.45;1.40;;;;;;;10.77;66.88;97731.53;5133274;27;20062;-75
2021/04/06 09:19:06;;;;;;;3.10;1.95;;;;;;;11.46;67.79;97779.78;5133208;27;20109;-74
2021/04/06 09:21:32;;;;;;;5.70;2.60;;;;;;;11.71;65.01;97777.41;5133691;27;20031;-76
2021/04/06 09:24:01;;;;;;;1.20;1.20;;;;;;;11.15;63.48;97736.53;5133059;27;20512;-75
2021/04/06 09:26:28;;;;;;;3.60;1.80;;;;;;;11.53;66.78;97776.69;5133569;27;20023;-76
2021/04/06 09:29:22;;;;;;;2.50;2.35;;;;;;;11.76;65.80;97762.22;5132764;28;20027;-77
2021/04/06 09:31:48;;;;;;;1.65;1.55;;;;;;;11.40;63.58;97700.22;5130967;28;20035;-75
2021/04/06 09:34:20;;;;;;;1.20;1.20;;;;;;;11.84;63.21;97755.09;5133372;27;20023;-75
2021/04/06 09:36:56;;;;;;;1.25;1.25;;;;;;;11.74;63.96;97728.72;5133035;27;20059;-75
2021/04/06 09:39:23;;;;;;;1.40;1.40;;;;;;;12.41;62.59;97713.56;5133045;27;20273;-76
2021/04/06 09:41:49;;;;;;;1.10;1.05;;;;;;;12.87;64.46;97738.91;5133417;27;20019;-75
2021/04/06 09:44:21;;;;;;;0.43;0.40;;;;;;;12.70;62.48;97726.75;5132370;27;20024;-73
2021/04/06 09:46:53;;;;;;;1.02;1.02;;;;;;;12.49;61.14;97675.94;5132062;28;20027;-75
2021/04/06 09:49:20;;;;;;;1.65;1.20;;;;;;;12.01;61.53;97664.13;5132641;27;20056;-74
2021/04/06 09:51:48;;;;;;;1.35;1.15;;;;;;;12.15;65.00;97716.81;5133126;27;20023;-76
2021/04/06 09:54:21;;;;;;;0.77;0.77;;;;;;;11.35;67.04;97675.19;5132787;28;20450;-74
2021/04/06 09:56:47;;;;;;;2.28;1.50;;;;;;;11.71;67.23;97729.59;5133159;28;20027;-74
2021/04/06 09:59:12;;;;;;;0.95;0.95;;;;;;;11.25;67.43;97688.28;5132888;28;20034;-73
2021/04/06 10:01:38;;;;;;;1.85;1.75;;;;;;;11.47;70.02;97735.06;5132770;28;20517;-73
2021/04/06 10:04:04;;;;;;;0.55;0.55;;;;;;;10.97;69.34;97708.94;5133345;27;20172;-73
2021/04/06 10:06:39;;;;;;;6.13;2.90;;;;;;;11.35;70.64;97724.97;5132875;27;20069;-74
2021/04/06 10:09:26;;;;;;;0.77;0.75;;;;;;;11.35;69.70;97697.31;5132049;27;20114;-74
2021/04/06 10:11:53;;;;;;;1.92;1.83;;;;;;;11.31;71.20;97703.03;5132690;27;20056;-73
2021/04/06 10:14:20;;;;;;;1.20;0.82;;;;;;;11.12;72.01;97635.19;5132509;28;20079;-74
2021/04/06 10:16:54;;;;;;;1.95;1.85;;;;;;;10.84;71.08;97655.84;5135118;27;20612;-74
2021/04/06 10:19:28;;;;;;;1.08;1.08;;;;;;;11.16;71.75;97666.19;5136541;27;20422;-73
2021/04/06 10:22:15;;;;;;;5.43;2.08;;;;;;;10.99;68.58;97623.56;5136155;27;20027;-73
2021/04/06 10:24:52;;;;;;;1.45;1.05;;;;;;;11.09;70.16;97640.91;5136307;27;20123;-74
2021/04/06 10:27:21;;;;;;;0.80;0.80;;;;;;;10.89;68.41;97627.59;5136953;27;20027;-75
2021/04/06 10:30:00;;;;;;;1.75;1.65;;;;;;;11.52;68.88;97668.06;5135893;27;20027;-77
2021/04/06 10:32:40;;;;;;;2.25;1.98;;;;;;;12.13;68.63;97672.19;5135849;27;20050;-74
2021/04/06 10:35:12;;;;;;;2.33;2.20;;;;;;;12.37;65.37;97647.25;5135895;27;20046;-76
2021/04/06 10:37:41;;;;;;;1.33;1.25;;;;;;;12.64;61.47;97635.19;5135335;27;20076;-76
2021/04/06 10:40:31;;;;;;;1.85;1.60;;;;;;;13.01;61.71;97646.69;5134273;27;20046;-76
2021/04/06 10:43:01;;;;;;;1.13;1.13;;;;;;;12.75;60.08;97612.44;5135564;27;20023;-75
2021/04/06 10:45:29;;;;;;;1.27;1.17;;;;;;;12.70;59.93;97647.13;5136446;27;20031;-76
2021/04/06 10:48:24;;;;;;;1.88;1.77;;;;;;;12.99;59.99;97632.53;5135498;27;20080;-76
2021/04/06 10:50:58;;;;;;;1.52;1.42;;;;;;;13.16;60.40;97613.41;5133422;27;20036;-77
2021/04/06 10:53:24;;;;;;;1.10;1.10;;;;;;;13.12;60.85;97594.19;5135267;27;20114;-75
2021/04/06 10:55:54;;;;;;;1.40;1.30;;;;;;;13.23;59.16;97576.97;5135733;27;20057;-77
2021/04/06 10:58:22;;;;;;;1.10;1.10;;;;;;;13.08;59.88;97540.91;5135903;27;20038;-76
2021/04/06 11:00:54;;;;;;;;;;;;;;;13.56;58.29;97601.66;5136035;27;20038;-75
2021/04/06 11:03:20;;;;;;;1.13;1.13;;;;;;;13.45;58.26;97593.94;5135734;27;19911;-76
2021/04/06 11:05:46;;;;;;;0.77;0.77;;;;;;;13.05;57.91;97550.97;5135479;27;20034;-76
2021/04/06 11:08:26;;;;;;;9.40;1.77;;;;;;;13.04;57.36;97568.84;5135372;27;20031;-75
2021/04/06 11:10:55;;;;;;;1.02;1.02;;;;;;;13.09;56.91;97567.38;5135257;27;20038;-79
2021/04/06 11:13:22;;;;;;;1.73;1.63;;;;;;;12.75;58.84;97530.06;5135362;27;20034;-76
2021/04/06 11:15:49;;;;;;;2.20;1.63;;;;;;;13.06;62.03;97537.84;5135279;27;20050;-79
2021/04/06 11:18:15;;;;;;;1.33;1.23;;;;;;;13.09;58.84;97513.94;5135112;27;20466;-77
2021/04/06 11:20:41;;;;;;;1.23;1.00;;;;;;;13.24;60.44;97507.13;5135180;27;20038;-75
2021/04/06 11:23:07;;;;;;;1.35;1.25;;;;;;;13.56;58.07;97535.81;5134703;27;20498;-76
2021/04/06 11:25:32;;;;;;;0.98;0.98;;;;;;;13.83;56.87;97529.09;5135612;27;20023;-79
2021/04/06 11:28:01;;;;;;;0.40;0.30;;;;;;;13.68;56.47;97534.69;5134881;27;20031;-76
2021/04/06 11:30:35;;;;;;;4.05;2.15;;;;;;;13.72;54.91;97531.72;5134641;27;20497;-75
2021/04/06 11:33:04;;;;;;;0.55;0.55;;;;;;;13.64;56.17;97486.97;5134913;27;20039;-78
2021/04/06 11:35:30;;;;;;;2.63;2.45;;;;;;;13.69;56.67;97502.91;5135254;27;20492;-78
2021/04/06 11:37:56;;;;;;;2.20;1.13;;;;;;;13.98;57.18;97493.69;5134582;27;20030;-75
2021/04/06 11:40:23;;;;;;;1.15;1.15;;;;;;;13.98;54.63;97474.25;5134371;27;20059;-74
2021/04/06 11:42:48;;;;;;;1.23;1.05;;;;;;;14.01;55.99;97500.25;5134541;27;20027;-75
2021/04/06 11:45:14;;;;;;;1.20;1.17;;;;;;;14.25;54.92;97467.41;5134428;27;20023;-75
2021/04/06 11:47:40;;;;;;;1.48;1.38;;;;;;;14.10;54.87;97508.44;5134283;27;20058;-77
2021/04/06 11:50:07;;;;;;;2.15;1.55;;;;;;;13.18;58.33;97466.72;5134522;27;20054;-75
2021/04/06 11:52:34;;;;;;;4.65;2.35;;;;;;;13.13;58.72;97467.41;5134506;27;20027;-75
2021/04/06 11:55:00;;;;;;;0.70;0.70;;;;;;;13.32;57.00;97519.34;5134316;27;20041;-76
2021/04/06 11:57:26;;;;;;;0.65;0.65;;;;;;;12.99;57.73;97500.19;5134574;27;20114;-76
2021/04/06 11:59:52;;;;;;;0.50;0.50;;;;;;;12.40;59.66;97473.81;5134270;27;20057;-76
2021/04/06 12:02:19;;;;;;;2.17;1.33;;;;;;;13.01;58.38;97505.28;5134470;27;20027;-77
2021/04/06 12:04:44;;;;;;;1.92;1.73;;;;;;;13.21;58.15;97449.09;5133952;27;20055;-77
2021/04/06 12:07:10;;;;;;;1.65;1.13;;;;;;;12.69;58.95;97456.38;5134133;27;20031;-76
2021/04/06 12:09:36;;;;;;;0.50;0.50;;;;;;;12.45;60.35;97432.34;5134077;27;20500;-77
2021/04/06 12:12:02;;;;;;;1.25;1.15;;;;;;;12.28;59.60;97406.41;5133926;27;20027;-75
2021/04/06 12:14:28;;;;;;;1.15;1.15;;;;;;;12.53;61.24;97436.28;5134242;27;20061;-76
2021/04/06 12:16:53;;;;;;;1.08;1.08;;;;;;;12.32;60.63;97420.03;5133966;27;20046;-76
2021/04/06 12:19:19;;;;;;;4.53;2.88;;;;;;;12.39;61.15;97427.97;5133993;27;20030;-77
2021/04/06 12:21:46;;;;;;;0.88;0.88;;;;;;;12.12;62.10;97382.72;5133797;27;20030;-75
2021/04/06 12:24:12;;;;;;;1.02;0.98;;;;;;;12.26;62.54;97417.19;5133862;27;20035;-77
2021/04/06 12:26:37;;;;;;;3.42;1.83;;;;;;;12.47;63.77;97435.41;5133941;27;20068;-75
2021/04/06 12:29:03;;;;;;;1.75;1.65;;;;;;;12.56;64.12;97424.22;5133108;27;20454;-76
2021/04/06 12:31:29;;;;;;;1.17;0.70;;;;;;;12.57;61.69;97414.66;5133875;27;20026;-76
2021/04/06 12:33:54;;;;;;;1.50;1.25;;;;;;;12.18;61.25;97377.28;5133735;27;20094;-77
2021/04/06 12:36:23;;;;;;;2.08;1.33;;;;;;;11.80;62.10;97369.88;5133910;27;20031;-77
2021/04/06 12:38:49;;;;;;;3.33;3.03;;;;;;;12.12;63.06;97421.47;5132568;27;20037;-77
2021/04/06 12:41:15;;;;;;;1.77;1.67;;;;;;;12.01;62.77;97421.28;5133272;27;20113;-77
2021/04/06 12:43:40;;;;;;;1.67;1.35;;;;;;;12.13;63.27;97422.25;5133492;27;20474;-76
2021/04/06 12:46:06;;;;;;;2.95;2.75;;;;;;;11.90;64.98;97381.59;5133844;27;20023;-75
2021/04/06 12:48:31;;;;;;;9.43;2.67;;;;;;;12.02;63.71;97403.44;5133480;27;20446;-77
2021/04/06 12:50:57;;;;;;;1.80;1.70;;;;;;;12.14;65.31;97421.00;5133117;27;20399;-77
2021/04/06 12:53:22;;;;;;;4.95;1.17;;;;;;;12.02;65.47;97370.22;5133315;27;20478;-76
2021/04/06 12:55:48;;;;;;;2.85;1.52;;;;;;;12.24;64.13;97412.13;5133291;27;20034;-77
2021/04/06 12:58:14;;;;;;;1.55;1.45;;;;;;;12.32;65.44;97420.03;5133041;27;20408;-77
2021/04/06 13:00:39;;;;;;;1.50;1.40;;;;;;;11.78;65.18;97377.88;5133444;27;20019;-76
2021/04/06 13:03:10;;;;;;;0.40;0.40;;;;;;;11.54;65.43;97350.25;5133290;27;20031;-75
2021/04/06 13:05:35;;;;;;;0.82;0.82;;;;;;;11.60;63.06;97366.94;5134239;27;20406;-76
2021/04/06 13:08:01;;;;;;;3.85;1.60;;;;;;;12.21;61.89;97418.63;5133594;27;20035;-76
2021/04/06 13:10:27;;;;;;;1.33;1.30;;;;;;;12.04;61.84;97358.69;5133194;27;20019;-80
2021/04/06 13:12:54;;;;;;;0.60;0.60;;;;;;;12.56;62.56;97409.59;5133838;27;20027;-77
2021/04/06 13:15:20;;;;;;;0.45;0.45;;;;;;;11.94;61.44;97376.63;5133210;27;20046;-76
2021/04/06 13:17:48;;;;;;;0.93;0.93;;;;;;;12.14;59.48;97376.72;5133082;27;20073;-77
2021/04/06 13:20:16;;;;;;;0.38;0.38;;;;;;;12.20;59.64;97361.72;5133275;27;20026;-77
2021/04/06 13:22:42;;;;;;;0.70;0.70;;;;;;;12.34;60.15;97367.72;5133646;27;20046;-76
2021/04/06 13:25:10;;;;;;;0.73;0.73;;;;;;;12.04;61.15;97320.69;5133186;27;20031;-76
2021/04/06 13:27:36;;;;;;;1.80;1.03;;;;;;;12.35;60.19;97378.31;5132983;27;20122;-75
2021/04/06 13:30:05;;;;;;;0.93;0.93;;;;;;;11.87;58.90;97354.88;5132768;27;20031;-78
2021/04/06 13:32:30;;;;;;;1.58;1.45;;;;;;;12.19;60.36;97376.78;5133098;27;20117;-76
2021/04/06 13:34:56;;;;;;;2.25;1.17;;;;;;;12.19;60.35;97376.03;5132747;27;20073;-74
2021/04/06 13:37:22;;;;;;;0.45;0.45;;;;;;;12.36;59.68;97367.97;5133192;27;20031;-74
2021/04/06 13:39:47;;;;;;;0.40;0.40;;;;;;;12.32;61.22;97357.09;5132162;27;20134;-74
2021/04/06 13:42:13;;;;;;;0.70;0.70;;;;;;;12.01;60.85;97351.31;5132831;27;20114;-75
2021/04/06 13:44:39;;;;;;;1.45;0.95;;;;;;;11.80;61.04;97322.81;5132887;27;20482;-74
2021/04/06 13:47:05;;;;;;;0.73;0.73;;;;;;;12.14;60.01;97341.47;5132998;27;20066;-74
2021/04/06 13:49:31;;;;;;;0.60;0.60;;;;;;;12.26;61.44;97344.41;5132628;27;20091;-74
2021/04/06 13:51:56;;;;;;;6.75;6.15;;;;;;;12.29;60.08;97357.31;5136046;27;20019;-74
2021/04/06 13:54:22;;;;;;;0.43;0.43;;;;;;;12.13;59.31;97322.56;5137227;27;20061;-77
2021/04/06 13:56:47;;;;;;;1.70;1.60;;;;;;;11.91;60.37;97295.31;5137070;27;20027;-77
2021/04/06 13:59:13;;;;;;;0.63;0.63;;;;;;;12.11;59.95;97334.16;5136990;27;20027;-76
2021/04/06 14:01:38;;;;;;;1.00;1.00;;;;;;;11.75;60.32;97259.84;5136746;27;20084;-74
2021/04/06 14:04:04;;;;;;;1.27;1.25;;;;;;;12.00;57.93;97289.66;5136836;27;20027;-74
2021/04/06 14:06:30;;;;;;;0.57;0.57;;;;;;;12.33;61.06;97330.19;5136635;27;20023;-74
2021/04/06 14:08:55;;;;;;;1.65;1.55;;;;;;;12.22;58.29;97339.09;5136527;27;20390;-74
2021/04/06 14:11:21;;;;;;;1.15;1.08;;;;;;;12.06;58.75;97286.97;5136558;27;20118;-75
2021/04/06 14:13:46;;;;;;;0.60;0.60;;;;;;;12.04;59.82;97270.88;5136492;27;20123;-74
2021/04/06 14:16:12;;;;;;;0.20;0.20;;;;;;;12.43;58.76;97284.47;5136416;27;20030;-75
2021/04/06 14:18:39;;;;;;;1.40;1.30;;;;;;;12.49;59.16;97315.78;5136684;27;20027;-75
2021/04/06 14:21:08;;;;;;;6.63;1.37;;;;;;;12.40;57.75;97305.63;5136383;27;20096;-75
2021/04/06 14:23:33;;;;;;;0.30;0.30;;;;;;;12.06;57.79;97260.06;5136308;27;20161;-75
2021/04/06 14:26:01;;;;;;;1.45;1.35;;;;;;;12.56;58.29;97316.16;5136814;27;20051;-75
2021/04/06 14:28:27;;;;;;;1.65;0.73;;;;;;;12.35;57.57;97308.31;5136251;27;20031;-74
2021/04/06 14:30:54;;;;;;;1.65;1.55;;;;;;;12.14;57.37;97290.88;5136142;27;20045;-73
2021/04/06 14:33:20;;;;;;;0.28;0.28;;;;;;;11.88;56.79;97278.91;5136173;27;20532;-74
2021/04/06 14:35:48;;;;;;;0.95;0.95;;;;;;;11.99;56.94;97298.47;5136019;27;20019;-74
2021/04/06 14:38:13;;;;;;;2.75;2.53;;;;;;;11.97;56.94;97271.25;5136100;27;20030;-73
2021/04/06 14:40:39;;;;;;;6.43;3.72;;;;;;;12.07;58.33;97242.22;5135963;27;20100;-74
2021/04/06 14:43:20;;;;;;;1.58;1.15;;;;;;;12.06;56.87;97231.59;5136361;27;20087;-74
2021/04/06 14:45:51;;;;;;;4.15;2.55;;;;;;;12.22;57.49;97242.94;5135944;27;20027;-79
2021/04/06 14:48:18;;;;;;;1.55;1.38;;;;;;;12.52;56.95;97287.13;5135779;27;20029;-78
2021/04/06 14:50:44;;;;;;;0.20;0.20;;;;;;;12.07;57.41;97239.44;5135397;27;20554;-77
2021/04/06 14:53:10;;;;;;;1.55;0.70;;;;;;;12.35;57.81;97297.22;5135510;27;20023;-80
2021/04/06 14:55:40;;;;;;;2.28;1.98;;;;;;;12.35;59.70;97289.69;5135456;27;20028;-80
2021/04/06 14:58:06;;;;;;;2.20;1.58;;;;;;;12.15;59.48;97243.34;5133504;27;20023;-78
2021/04/06 15:00:33;;;;;;;1.52;1.42;;;;;;;12.27;60.11;97260.09;5133521;27;20471;-80
2021/04/06 15:02:58;;;;;;;6.20;4.95;;;;;;;12.20;61.31;97250.94;5133190;27;20051;-78
2021/04/06 15:05:24;;;;;;;1.13;1.05;;;;;;;12.02;62.09;97244.91;5133537;27;20462;-78
2021/04/06 15:07:52;;;;;;;5.10;1.75;;;;;;;12.52;63.07;97295.44;5134340;27;20043;-79
2021/04/06 15:10:20;;;;;;;0.95;0.95;;;;;;;12.06;62.67;97223.31;5135136;27;20084;-78
2021/04/06 15:12:46;;;;;;;1.50;1.50;;;;;;;12.27;61.68;97249.03;5135106;27;20034;-79
2021/04/06 15:15:12;;;;;;;1.27;1.17;;;;;;;12.46;62.82;97297.38;5135173;27;20023;-79
2021/04/06 15:17:38;;;;;;;1.70;1.35;;;;;;;12.32;61.05;97284.34;5135035;27;20422;-78
2021/04/06 15:20:08;;;;;;;1.67;1.58;;;;;;;12.67;61.29;97293.38;5135168;27;20027;-76
2021/04/06 15:22:38;;;;;;;6.85;6.10;;;;;;;12.23;61.03;97257.53;5135358;27;20375;-76
2021/04/06 15:25:09;;;;;;;3.22;1.30;;;;;;;12.69;60.91;97293.66;5134817;27;20027;-77
2021/04/06 15:27:41;;;;;;;0.55;0.43;;;;;;;12.90;60.58;97316.59;5135380;27;20505;-77
2021/04/06 15:30:08;;;;;;;2.55;2.35;;;;;;;12.49;61.56;97307.47;5134668;27;20028;-79
2021/04/06 15:32:33;;;;;;;1.98;1.17;;;;;;;12.37;60.44;97258.72;5134663;27;20019;-74
2021/04/06 15:35:00;;;;;;;2.75;0.93;;;;;;;12.26;60.71;97305.66;5134728;27;20478;-75
2021/04/06 15:37:30;;;;;;;1.08;1.08;;;;;;;12.15;61.24;97286.88;5134709;27;20031;-75
2021/04/06 15:40:01;;;;;;;1.85;1.75;;;;;;;12.04;60.46;97237.66;5134653;27;20050;-75
2021/04/06 15:42:26;;;;;;;1.02;1.02;;;;;;;11.96;61.90;97230.22;5134934;27;20027;-79
2021/04/06 15:44:57;;;;;;;0.88;0.88;;;;;;;12.27;62.94;97282.25;5135405;27;20080;-77
2021/04/06 15:47:25;;;;;;;2.17;1.98;;;;;;;12.21;61.74;97291.25;5133958;27;20112;-76
2021/04/06 15:49:50;;;;;;;9.63;6.90;;;;;;;12.00;62.27;97284.13;5134334;27;20201;-80
2021/04/06 15:52:23;;;;;;;13.93;5.18;;;;;;;11.79;61.90;97275.00;5134339;27;20027;-80
2021/04/06 15:54:49;;;;;;;2.72;2.53;;;;;;;11.37;61.94;97242.09;5134846;27;20023;-79
2021/04/06 15:57:14;;;;;;;2.55;1.95;;;;;;;11.74;62.28;97292.28;5134269;27;20493;-79
2021/04/06 15:59:40;;;;;;;0.75;0.75;;;;;;;11.48;60.84;97252.59;5134065;27;20422;-75
2021/04/06 16:02:06;;;;;;;1.50;1.42;;;;;;;11.34;60.57;97220.94;5134476;27;20019;-80
2021/04/06 16:04:31;;;;;;;2.72;2.53;;;;;;;11.64;61.06;97281.75;5134041;27;20474;-78
2021/04/06 16:06:56;;;;;;;7.85;2.95;;;;;;;11.41;60.92;97259.25;5135025;27;20023;-75
2021/04/06 16:09:22;;;;;;;5.68;1.67;;;;;;;10.95;62.36;97198.16;5133841;27;20470;-77
2021/04/06 16:11:48;;;;;;;1.48;1.38;;;;;;;11.36;64.00;97265.47;5134094;27;20168;-81
2021/04/06 16:14:14;;;;;;;9.55;6.75;;;;;;;11.20;63.14;97273.47;5133035;27;20493;-80
2021/04/06 16:16:40;;;;;;;4.57;4.18;;;;;;;11.01;62.58;97232.19;5133790;27;20049;-77
2021/04/06 16:19:09;;;;;;;2.90;2.80;;;;;;;11.22;62.72;97274.50;5133830;27;20023;-76
2021/04/06 16:21:35;;;;;;;1.90;1.60;;;;;;;10.88;63.57;97226.16;5134467;27;20023;-73
2021/04/06 16:24:01;;;;;;;4.07;2.65;;;;;;;11.10;63.64;97270.00;5133586;27;20566;-81
2021/04/06 16:26:27;;;;;;;1.75;1.67;;;;;;;10.78;65.22;97240.53;5133724;27;20490;-75
2021/04/06 16:28:53;;;;;;;4.03;3.65;;;;;;;11.00;65.89;97276.88;5133575;27;20027;-77
2021/04/06 16:31:19;;;;;;;2.13;1.50;;;;;;;10.89;66.28;97282.19;5133686;27;20027;-75
2021/04/06 16:33:47;;;;;;;6.05;3.40;;;;;;;10.56;67.30;97241.59;5133646;27;20137;-74
2021/04/06 16:36:13;;;;;;;1.88;1.77;;;;;;;10.81;70.46;97295.59;5133481;27;20114;-74
2021/04/06 16:38:40;;;;;;;3.60;2.33;;;;;;;10.18;72.10;97206.47;5134036;27;20039;-74
2021/04/06 16:41:08;;;;;;;2.40;2.13;;;;;;;10.34;72.30;97252.19;5133735;27;20051;-73
2021/04/06 16:43:33;;;;;;;;;;;;;;;10.52;74.21;97279.69;5134494;27;20023;-75
2021/04/06 16:46:00;;;;;;;2.47;2.28;;;;;;;10.12;76.35;97246.94;5135424;27;20385;-75
2021/04/06 16:48:27;;;;;;;2.70;2.50;;;;;;;10.19;77.65;97273.44;5133324;27;20125;-75
2021/04/06 16:50:53;;;;;;;7.65;5.68;;;;;;;10.00;78.76;97292.06;5133943;27;20055;-76
2021/04/06 16:53:31;;;;;;;2.92;2.72;;;;;;;9.57;80.48;97262.19;5132659;27;20047;-74
2021/04/06 16:56:00;;;;;;;10.43;4.95;;;;;;;9.38;81.05;97211.88;5132896;27;20023;-74
2021/04/06 16:58:26;;;;;;;3.75;3.40;;;;;;;9.63;81.23;97274.13;5133156;27;20106;-74
2021/04/06 17:00:52;;;;;;;5.57;5.10;;;;;;;9.21;81.17;97249.28;5132921;27;20050;-77
2021/04/06 17:03:18;;;;;;;7.63;5.40;;;;;;;9.45;81.39;97261.16;5133480;27;20398;-77
2021/04/06 17:05:44;;;;;;;17.83;5.10;;;;;;;9.17;81.75;97262.44;5132957;27;20030;-75
2021/04/06 17:08:10;;;;;;;8.00;3.67;;;;;;;9.12;83.27;97247.28;5132778;27;20027;-73
2021/04/06 17:10:35;;;;;;;3.55;2.60;;;;;;;9.09;83.20;97233.69;5132781;27;20030;-78
2021/04/06 17:13:02;;;;;;;4.28;3.88;;;;;;;8.99;84.27;97225.44;5132707;27;20111;-77
2021/04/06 17:15:31;;;;;;;5.28;3.85;;;;;;;9.34;84.12;97286.44;5133201;27;20031;-75
2021/04/06 17:17:57;;;;;;;6.00;4.18;;;;;;;9.23;83.70;97285.38;5132485;27;20031;-75
2021/04/06 17:20:23;;;;;;;6.82;3.38;;;;;;;8.74;84.59;97203.00;5133083;27;20071;-75
2021/04/06 17:22:49;;;;;;;3.47;2.67;;;;;;;8.99;84.68;97247.47;5132430;27;20027;-75